Flight Track Log - Related Links

Times and Time Zones

All times are in EDT time to prevent confusion due to time zone crossing. See the RPA3436 flight status page for this flight to view local times or setup timezone preferences in your user account.

Time Position Orientation Groundspeed Altitude Reporting Facility
EDT Latitude Longitude Course Direction KTS MPH feet Rate Location/Type
Fri 10:26:27 AM 32.8611 -80.0461 13° North 170 196 1,400  Level Jacksonville Center
Fri 10:27:27 AM 32.8889 -79.9908 59° Northeast 247 284 3,500 2,450 Climbing Jacksonville Center
Fri 10:28:00 AM 33.1666 -79.9500 North  Level FlightAware Approximate
Fri 10:28:27 AM 32.9503 -79.9344 38° Northeast 269 310 6,300  Level Jacksonville Center
Fri 10:29:00 AM 33.2621 -79.9243 North  Level FlightAware Approximate
Fri 10:29:27 AM 33.0317 -79.9342 360° North 270 311 9,900  Level Jacksonville Center
Fri 10:30:00 AM 33.3549 -79.8892 23° Northeast  Level FlightAware Approximate
Fri 10:30:27 AM 33.1214 -79.9386 358° North 286 329 11,600  Level Jacksonville Center
Fri 10:31:00 AM 33.4507 -79.8665 13° North  Level FlightAware Approximate
Fri 10:31:27 AM 33.2197 -79.9403 359° North 321 369 14,300  Level Jacksonville Center
Fri 10:32:27 AM 33.3214 -79.9147 12° North 349 402 16,300 2,150 Climbing Jacksonville Center
Fri 10:33:27 AM 33.4228 -79.8864 13° North 368 423 18,600 2,200 Climbing Jacksonville Center
Fri 10:34:27 AM 33.5286 -79.8578 13° North 373 429 20,700 1,950 Climbing Jacksonville Center
Fri 10:35:27 AM 33.6364 -79.8292 12° North 383 441 22,500 1,800 Climbing Jacksonville Center
Fri 10:36:27 AM 33.7483 -79.7953 14° North 393 452 24,300 1,700 Climbing Jacksonville Center
Fri 10:37:27 AM 33.8558 -79.7592 16° North 398 458 25,900 1,350 Climbing Jacksonville Center
Fri 10:38:27 AM 33.9453 -79.6583 43° Northeast 398 458 27,000 1,206 Climbing Jacksonville Center
Fri 10:40:56 AM 34.1378 -79.4181 46° Northeast 425 489 30,100 1,143 Climbing Washington Center
Fri 10:41:57 AM 34.2419 -79.2922 45° Northeast 438 504 31,000 454 Climbing Washington Center
Fri 10:42:55 AM 34.3633 -79.2047 31° Northeast 443 510 31,000  Level Washington Center
Fri 10:43:55 AM 34.4758 -79.1442 24° Northeast 443 510 31,000  Level Washington Center
Fri 10:44:56 AM 34.5883 -79.0783 26° Northeast 438 504 31,000  Level Washington Center
Fri 10:45:57 AM 34.7008 -79.0125 26° Northeast 438 504 31,000  Level Washington Center
Fri 10:46:55 AM 34.8111 -78.9514 24° Northeast 438 504 31,000  Level Washington Center
Fri 10:47:55 AM 34.9236 -78.8825 27° Northeast 438 504 31,000  Level Washington Center
Fri 10:48:56 AM 35.0381 -78.8161 25° Northeast 438 504 31,000  Level Washington Center
Fri 10:49:56 AM 35.1483 -78.7519 25° Northeast 438 504 31,000  Level Washington Center
Fri 10:51:08 AM 35.2606 -78.6878 25° Northeast 438 504 31,000  Level Washington Center
Fri 10:52:09 AM 35.3961 -78.6064 26° Northeast 438 504 31,000 -403 Level Washington Center
Fri 10:53:07 AM 35.5083 -78.5392 26° Northeast 443 510 30,200 -1,160 Descending Washington Center
Fri 10:54:08 AM 35.6144 -78.4767 26° Northeast 452 520 28,700 -1,587 Descending Washington Center
Fri 10:55:08 AM 35.7244 -78.4114 26° Northeast 447 514 27,000 -843 Descending Washington Center
Fri 10:56:09 AM 35.8364 -78.3436 26° Northeast 447 514 27,000  Level Washington Center
Fri 10:57:07 AM 35.9486 -78.2783 25° Northeast 442 509 27,000  Level Washington Center
Fri 10:58:07 AM 36.0606 -78.2103 26° Northeast 447 514 27,000  Level Washington Center
Fri 10:59:09 AM 36.1728 -78.1444 25° Northeast 447 514 27,000  Level Washington Center
Fri 11:00:09 AM 36.2869 -78.0761 26° Northeast 447 514 27,000  Level Washington Center
Fri 11:01:07 AM 36.3989 -78.0047 27° Northeast 447 514 27,000  Level Washington Center
Fri 11:02:07 AM 36.5108 -77.9383 25° Northeast 447 514 27,000 -595 Level Washington Center
Fri 11:03:08 AM 36.6247 -77.8669 27° Northeast 447 514 25,800 -1,339 Descending Washington Center
Fri 11:04:08 AM 36.7367 -77.8028 25° Northeast 442 509 24,300 -1,488 Descending Washington Center
Fri 11:05:09 AM 36.8522 -77.7514 20° North 442 509 22,800 -1,160 Descending Washington Center
Fri 11:06:07 AM 36.9658 -77.7053 18° North 437 503 22,000 -403 Descending Washington Center
Fri 11:07:08 AM 37.0769 -77.6614 17° North 425 489 22,000  Level Washington Center
Fri 11:08:08 AM 37.1925 -77.6125 19° North 425 489 22,000  Level Washington Center
Fri 11:09:07 AM 37.3061 -77.5658 18° North 425 489 22,000  Level Washington Center
Fri 11:10:07 AM 37.4236 -77.5192 18° North 425 489 22,000  Level Washington Center
Fri 11:11:08 AM 37.5392 -77.4697 19° North 425 489 22,000  Level Washington Center
Fri 11:12:09 AM 37.6567 -77.4228 18° North 425 489 22,000 -706 Level Washington Center
Fri 11:13:07 AM 37.7722 -77.3731 19° North 431 496 20,600 -1,613 Descending Washington Center
Fri 11:14:08 AM 37.8811 -77.3281 18° North 421 484 18,800 -2,115 Descending Washington Center
Fri 11:15:09 AM 37.9925 -77.2808 18° North 421 484 16,300 -2,479 Descending Washington Center
Fri 11:16:09 AM 38.0972 -77.2408 17° North 405 466 13,800 -2,542 Descending Washington Center
Fri 11:17:07 AM 38.1981 -77.1981 18° North 390 449 11,300 -1,932 Descending Washington Center
Fri 11:18:07 AM 38.2944 -77.1553 19° North 374 430 10,000 -645 Descending Washington Center
Fri 11:19:08 AM 38.3928 -77.1386 North 358 412 10,000  Level Washington Center
Fri 11:20:08 AM 38.4908 -77.1169 10° North 358 412 10,000  Level Washington Center
Fri 11:21:09 AM 38.5850 -77.0975 North 353 406 10,000 -694 Level Washington Center
Fri 11:22:09 AM 38.6667 -77.0781 11° North 324 373 8,600 -1,500 Descending Washington Center
Fri 11:23:09 AM 38.7439 -77.0661 North 295 339 7,000 -1,322 Descending Washington Center
Fri 11:24:07 AM 38.8100 -77.0994 339° North 262 302 6,000 -1,210 Descending Washington Center
Fri 11:25:08 AM 38.8636 -77.1592 319° Northwest 245 282 4,600 -1,353 Descending Washington Center
Fri 11:26:20 AM 38.9333 -77.2333 320° Northwest 246 283 3,000 -773 Descending Potomac TRACON
Fri 11:27:20 AM 38.9667 -77.1833 49° Northeast 273 314 2,900 -100 Descending Potomac TRACON

Login

Don't have an account? Register now (free) for customized features, flight alerts, and more!